sensor_id;sensor_type;location;lat;lon;timestamp;P1;durP1;ratioP1;P2;durP2;ratioP2
65599;SDS011;52272;-29.642;-50.764;2022-12-17T00:01:37;14.95;;;2.78;;
65599;SDS011;52272;-29.642;-50.764;2022-12-17T00:04:29;12.77;;;2.60;;
65599;SDS011;52272;-29.642;-50.764;2022-12-17T00:07:17;15.90;;;2.60;;
65599;SDS011;52272;-29.642;-50.764;2022-12-17T00:10:07;21.75;;;2.97;;
65599;SDS011;52272;-29.642;-50.764;2022-12-17T00:12:56;20.30;;;3.63;;
65599;SDS011;52272;-29.642;-50.764;2022-12-17T00:15:49;12.18;;;2.55;;
65599;SDS011;52272;-29.642;-50.764;2022-12-17T00:18:39;15.27;;;2.90;;
65599;SDS011;52272;-29.642;-50.764;2022-12-17T00:21:27;16.17;;;2.85;;
65599;SDS011;52272;-29.642;-50.764;2022-12-17T00:24:16;14.57;;;3.33;;
65599;SDS011;52272;-29.642;-50.764;2022-12-17T00:27:07;11.23;;;2.90;;
65599;SDS011;52272;-29.642;-50.764;2022-12-17T00:29:56;14.20;;;2.28;;
65599;SDS011;52272;-29.642;-50.764;2022-12-17T00:32:45;10.70;;;2.00;;
65599;SDS011;52272;-29.642;-50.764;2022-12-17T00:35:33;10.10;;;2.10;;
65599;SDS011;52272;-29.642;-50.764;2022-12-17T00:38:23;13.23;;;2.22;;
65599;SDS011;52272;-29.642;-50.764;2022-12-17T00:41:11;9.75;;;2.00;;
65599;SDS011;52272;-29.642;-50.764;2022-12-17T00:44:00;13.13;;;2.08;;
65599;SDS011;52272;-29.642;-50.764;2022-12-17T00:46:48;11.20;;;1.90;;
65599;SDS011;52272;-29.642;-50.764;2022-12-17T00:49:37;11.10;;;2.10;;
65599;SDS011;52272;-29.642;-50.764;2022-12-17T00:52:25;11.50;;;2.25;;
65599;SDS011;52272;-29.642;-50.764;2022-12-17T00:55:16;12.20;;;2.40;;
65599;SDS011;52272;-29.642;-50.764;2022-12-17T00:58:06;11.52;;;2.00;;
65599;SDS011;52272;-29.642;-50.764;2022-12-17T01:00:58;8.48;;;2.05;;
65599;SDS011;52272;-29.642;-50.764;2022-12-17T01:03:48;17.95;;;2.47;;
65599;SDS011;52272;-29.642;-50.764;2022-12-17T01:06:37;12.68;;;2.25;;
65599;SDS011;52272;-29.642;-50.764;2022-12-17T01:09:28;12.88;;;2.08;;
65599;SDS011;52272;-29.642;-50.764;2022-12-17T01:12:17;13.80;;;2.50;;
65599;SDS011;52272;-29.642;-50.764;2022-12-17T01:15:05;12.90;;;1.80;;
65599;SDS011;52272;-29.642;-50.764;2022-12-17T01:17:53;13.90;;;2.38;;
65599;SDS011;52272;-29.642;-50.764;2022-12-17T01:20:42;12.50;;;2.28;;
65599;SDS011;52272;-29.642;-50.764;2022-12-17T01:23:31;9.32;;;2.03;;
65599;SDS011;52272;-29.642;-50.764;2022-12-17T01:26:23;12.68;;;2.63;;
65599;SDS011;52272;-29.642;-50.764;2022-12-17T01:29:12;12.20;;;2.13;;
65599;SDS011;52272;-29.642;-50.764;2022-12-17T01:32:00;12.43;;;2.30;;
65599;SDS011;52272;-29.642;-50.764;2022-12-17T01:34:49;14.20;;;2.65;;
65599;SDS011;52272;-29.642;-50.764;2022-12-17T01:37:38;10.57;;;2.00;;
65599;SDS011;52272;-29.642;-50.764;2022-12-17T01:40:27;15.75;;;2.17;;
65599;SDS011;52272;-29.642;-50.764;2022-12-17T01:43:30;13.20;;;2.10;;
65599;SDS011;52272;-29.642;-50.764;2022-12-17T01:46:20;12.00;;;1.80;;
65599;SDS011;52272;-29.642;-50.764;2022-12-17T01:49:09;13.85;;;2.85;;
65599;SDS011;52272;-29.642;-50.764;2022-12-17T01:51:58;9.63;;;1.70;;
65599;SDS011;52272;-29.642;-50.764;2022-12-17T01:54:48;15.23;;;2.10;;
65599;SDS011;52272;-29.642;-50.764;2022-12-17T01:57:37;9.70;;;2.08;;
65599;SDS011;52272;-29.642;-50.764;2022-12-17T02:00:25;8.00;;;2.17;;
65599;SDS011;52272;-29.642;-50.764;2022-12-17T02:03:15;16.33;;;2.53;;
65599;SDS011;52272;-29.642;-50.764;2022-12-17T02:09:06;12.55;;;2.20;;
65599;SDS011;52272;-29.642;-50.764;2022-12-17T02:15:27;8.98;;;1.88;;
65599;SDS011;52272;-29.642;-50.764;2022-12-17T02:18:19;8.88;;;1.70;;
65599;SDS011;52272;-29.642;-50.764;2022-12-17T02:21:12;10.45;;;2.03;;
65599;SDS011;52272;-29.642;-50.764;2022-12-17T02:27:21;11.60;;;2.33;;
65599;SDS011;52272;-29.642;-50.764;2022-12-17T02:30:12;12.90;;;2.15;;
65599;SDS011;52272;-29.642;-50.764;2022-12-17T02:33:01;6.32;;;1.77;;
65599;SDS011;52272;-29.642;-50.764;2022-12-17T02:35:54;10.95;;;2.22;;
65599;SDS011;52272;-29.642;-50.764;2022-12-17T02:38:49;13.75;;;1.95;;
65599;SDS011;52272;-29.642;-50.764;2022-12-17T02:44:34;11.85;;;2.47;;
65599;SDS011;52272;-29.642;-50.764;2022-12-17T02:47:23;13.02;;;2.65;;
65599;SDS011;52272;-29.642;-50.764;2022-12-17T02:50:13;16.98;;;2.22;;
65599;SDS011;52272;-29.642;-50.764;2022-12-17T02:53:01;7.85;;;2.15;;
65599;SDS011;52272;-29.642;-50.764;2022-12-17T02:55:51;14.45;;;2.53;;
65599;SDS011;52272;-29.642;-50.764;2022-12-17T02:58:39;8.35;;;2.45;;
65599;SDS011;52272;-29.642;-50.764;2022-12-17T03:01:28;11.98;;;2.33;;
65599;SDS011;52272;-29.642;-50.764;2022-12-17T03:04:16;6.38;;;1.88;;
65599;SDS011;52272;-29.642;-50.764;2022-12-17T03:07:05;12.73;;;2.22;;
65599;SDS011;52272;-29.642;-50.764;2022-12-17T03:09:55;18.90;;;2.30;;
65599;SDS011;52272;-29.642;-50.764;2022-12-17T03:12:43;15.15;;;2.30;;
65599;SDS011;52272;-29.642;-50.764;2022-12-17T03:15:32;14.93;;;2.20;;
65599;SDS011;52272;-29.642;-50.764;2022-12-17T03:18:20;9.48;;;1.83;;
65599;SDS011;52272;-29.642;-50.764;2022-12-17T03:21:08;14.55;;;2.70;;
65599;SDS011;52272;-29.642;-50.764;2022-12-17T03:23:57;15.48;;;2.83;;
65599;SDS011;52272;-29.642;-50.764;2022-12-17T03:26:45;15.50;;;2.35;;
65599;SDS011;52272;-29.642;-50.764;2022-12-17T03:29:35;14.45;;;2.65;;
65599;SDS011;52272;-29.642;-50.764;2022-12-17T03:32:23;13.63;;;2.97;;
65599;SDS011;52272;-29.642;-50.764;2022-12-17T03:35:11;12.27;;;2.35;;
65599;SDS011;52272;-29.642;-50.764;2022-12-17T03:38:00;15.70;;;2.75;;
65599;SDS011;52272;-29.642;-50.764;2022-12-17T03:40:54;20.15;;;3.30;;
65599;SDS011;52272;-29.642;-50.764;2022-12-17T03:43:42;20.25;;;2.58;;
65599;SDS011;52272;-29.642;-50.764;2022-12-17T03:46:31;9.90;;;2.70;;
65599;SDS011;52272;-29.642;-50.764;2022-12-17T03:49:19;14.10;;;2.20;;
65599;SDS011;52272;-29.642;-50.764;2022-12-17T03:52:10;15.98;;;2.80;;
65599;SDS011;52272;-29.642;-50.764;2022-12-17T03:54:58;14.75;;;2.53;;
65599;SDS011;52272;-29.642;-50.764;2022-12-17T03:57:46;11.60;;;2.75;;
65599;SDS011;52272;-29.642;-50.764;2022-12-17T04:00:39;18.48;;;2.88;;
65599;SDS011;52272;-29.642;-50.764;2022-12-17T04:03:28;15.88;;;3.10;;
65599;SDS011;52272;-29.642;-50.764;2022-12-17T04:06:17;14.38;;;2.47;;
65599;SDS011;52272;-29.642;-50.764;2022-12-17T04:09:06;8.75;;;2.08;;
65599;SDS011;52272;-29.642;-50.764;2022-12-17T04:11:54;18.75;;;3.00;;
65599;SDS011;52272;-29.642;-50.764;2022-12-17T04:14:42;11.43;;;2.78;;
65599;SDS011;52272;-29.642;-50.764;2022-12-17T04:17:30;11.95;;;2.53;;
65599;SDS011;52272;-29.642;-50.764;2022-12-17T04:20:19;10.45;;;2.25;;
65599;SDS011;52272;-29.642;-50.764;2022-12-17T04:23:07;14.98;;;2.53;;
65599;SDS011;52272;-29.642;-50.764;2022-12-17T04:25:56;14.98;;;2.63;;
65599;SDS011;52272;-29.642;-50.764;2022-12-17T04:28:45;20.67;;;3.25;;
65599;SDS011;52272;-29.642;-50.764;2022-12-17T04:31:34;16.00;;;3.40;;
65599;SDS011;52272;-29.642;-50.764;2022-12-17T04:34:22;20.85;;;3.42;;
65599;SDS011;52272;-29.642;-50.764;2022-12-17T04:37:11;19.70;;;3.65;;
65599;SDS011;52272;-29.642;-50.764;2022-12-17T04:39:59;17.10;;;3.42;;
65599;SDS011;52272;-29.642;-50.764;2022-12-17T04:42:48;12.77;;;3.35;;
65599;SDS011;52272;-29.642;-50.764;2022-12-17T04:45:36;16.63;;;4.00;;
65599;SDS011;52272;-29.642;-50.764;2022-12-17T04:48:25;16.33;;;3.03;;
65599;SDS011;52272;-29.642;-50.764;2022-12-17T04:51:13;9.23;;;2.58;;
65599;SDS011;52272;-29.642;-50.764;2022-12-17T04:54:04;12.45;;;2.88;;
65599;SDS011;52272;-29.642;-50.764;2022-12-17T04:56:53;16.50;;;3.20;;
65599;SDS011;52272;-29.642;-50.764;2022-12-17T04:59:42;16.33;;;3.40;;
65599;SDS011;52272;-29.642;-50.764;2022-12-17T05:02:30;31.05;;;4.00;;
65599;SDS011;52272;-29.642;-50.764;2022-12-17T05:05:19;23.30;;;4.30;;
65599;SDS011;52272;-29.642;-50.764;2022-12-17T05:08:07;15.70;;;3.10;;
65599;SDS011;52272;-29.642;-50.764;2022-12-17T05:11:00;15.80;;;3.20;;
65599;SDS011;52272;-29.642;-50.764;2022-12-17T05:13:51;18.42;;;3.10;;
65599;SDS011;52272;-29.642;-50.764;2022-12-17T05:16:40;13.05;;;2.55;;
65599;SDS011;52272;-29.642;-50.764;2022-12-17T05:19:28;12.18;;;2.65;;
65599;SDS011;52272;-29.642;-50.764;2022-12-17T05:22:18;11.70;;;2.30;;
65599;SDS011;52272;-29.642;-50.764;2022-12-17T05:25:06;11.35;;;2.42;;
65599;SDS011;52272;-29.642;-50.764;2022-12-17T05:27:55;13.18;;;2.88;;
65599;SDS011;52272;-29.642;-50.764;2022-12-17T05:30:49;9.75;;;2.67;;
65599;SDS011;52272;-29.642;-50.764;2022-12-17T05:33:42;23.52;;;3.13;;
65599;SDS011;52272;-29.642;-50.764;2022-12-17T05:36:30;15.32;;;3.70;;
65599;SDS011;52272;-29.642;-50.764;2022-12-17T05:39:19;10.10;;;3.30;;
65599;SDS011;52272;-29.642;-50.764;2022-12-17T05:42:07;13.23;;;3.00;;
65599;SDS011;52272;-29.642;-50.764;2022-12-17T05:44:55;25.80;;;3.70;;
65599;SDS011;52272;-29.642;-50.764;2022-12-17T05:47:44;11.77;;;2.35;;
65599;SDS011;52272;-29.642;-50.764;2022-12-17T05:50:49;9.63;;;2.78;;
65599;SDS011;52272;-29.642;-50.764;2022-12-17T05:53:41;14.50;;;3.20;;
65599;SDS011;52272;-29.642;-50.764;2022-12-17T05:56:29;13.27;;;2.67;;
65599;SDS011;52272;-29.642;-50.764;2022-12-17T05:59:17;20.40;;;2.70;;
65599;SDS011;52272;-29.642;-50.764;2022-12-17T06:02:06;8.00;;;2.80;;
65599;SDS011;52272;-29.642;-50.764;2022-12-17T06:04:55;6.75;;;2.35;;
65599;SDS011;52272;-29.642;-50.764;2022-12-17T06:07:43;9.45;;;2.72;;
65599;SDS011;52272;-29.642;-50.764;2022-12-17T06:10:32;15.25;;;3.53;;
65599;SDS011;52272;-29.642;-50.764;2022-12-17T06:13:20;17.27;;;3.58;;
65599;SDS011;52272;-29.642;-50.764;2022-12-17T06:16:09;14.50;;;3.60;;
65599;SDS011;52272;-29.642;-50.764;2022-12-17T06:18:57;14.27;;;3.35;;
65599;SDS011;52272;-29.642;-50.764;2022-12-17T06:24:37;16.95;;;3.60;;
65599;SDS011;52272;-29.642;-50.764;2022-12-17T06:27:25;13.23;;;2.75;;
65599;SDS011;52272;-29.642;-50.764;2022-12-17T06:30:14;20.85;;;3.72;;
65599;SDS011;52272;-29.642;-50.764;2022-12-17T06:33:05;15.45;;;3.17;;
65599;SDS011;52272;-29.642;-50.764;2022-12-17T06:35:56;7.03;;;2.55;;
65599;SDS011;52272;-29.642;-50.764;2022-12-17T06:38:49;14.02;;;3.42;;
65599;SDS011;52272;-29.642;-50.764;2022-12-17T06:41:38;20.48;;;3.30;;
65599;SDS011;52272;-29.642;-50.764;2022-12-17T06:44:31;23.52;;;3.42;;
65599;SDS011;52272;-29.642;-50.764;2022-12-17T06:47:20;20.63;;;4.78;;
65599;SDS011;52272;-29.642;-50.764;2022-12-17T06:50:08;12.70;;;3.30;;
65599;SDS011;52272;-29.642;-50.764;2022-12-17T06:52:58;23.27;;;4.30;;
65599;SDS011;52272;-29.642;-50.764;2022-12-17T06:55:48;15.20;;;3.33;;
65599;SDS011;52272;-29.642;-50.764;2022-12-17T06:58:37;22.88;;;3.80;;
65599;SDS011;52272;-29.642;-50.764;2022-12-17T07:01:26;17.65;;;4.03;;
65599;SDS011;52272;-29.642;-50.764;2022-12-17T07:04:15;19.42;;;3.88;;
65599;SDS011;52272;-29.642;-50.764;2022-12-17T07:07:05;19.02;;;3.28;;
65599;SDS011;52272;-29.642;-50.764;2022-12-17T07:09:54;19.83;;;3.63;;
65599;SDS011;52272;-29.642;-50.764;2022-12-17T07:12:42;17.95;;;2.90;;
65599;SDS011;52272;-29.642;-50.764;2022-12-17T07:15:31;25.55;;;4.57;;
65599;SDS011;52272;-29.642;-50.764;2022-12-17T07:18:19;10.95;;;3.55;;
65599;SDS011;52272;-29.642;-50.764;2022-12-17T07:21:08;16.38;;;2.90;;
65599;SDS011;52272;-29.642;-50.764;2022-12-17T07:23:56;17.20;;;3.15;;
65599;SDS011;52272;-29.642;-50.764;2022-12-17T07:26:45;17.05;;;3.28;;
65599;SDS011;52272;-29.642;-50.764;2022-12-17T07:29:50;15.13;;;2.75;;
65599;SDS011;52272;-29.642;-50.764;2022-12-17T07:32:39;11.73;;;2.63;;
65599;SDS011;52272;-29.642;-50.764;2022-12-17T07:35:38;14.52;;;3.05;;
65599;SDS011;52272;-29.642;-50.764;2022-12-17T07:38:27;13.10;;;3.22;;
65599;SDS011;52272;-29.642;-50.764;2022-12-17T07:41:16;11.90;;;3.00;;
65599;SDS011;52272;-29.642;-50.764;2022-12-17T07:44:04;8.50;;;2.40;;
65599;SDS011;52272;-29.642;-50.764;2022-12-17T07:46:53;10.73;;;2.13;;
65599;SDS011;52272;-29.642;-50.764;2022-12-17T07:49:42;5.22;;;2.58;;
65599;SDS011;52272;-29.642;-50.764;2022-12-17T07:52:30;15.25;;;2.95;;
65599;SDS011;52272;-29.642;-50.764;2022-12-17T07:55:18;9.98;;;2.50;;
65599;SDS011;52272;-29.642;-50.764;2022-12-17T07:58:08;10.68;;;2.50;;
65599;SDS011;52272;-29.642;-50.764;2022-12-17T08:00:58;6.13;;;2.33;;
65599;SDS011;52272;-29.642;-50.764;2022-12-17T08:03:47;12.05;;;3.03;;
65599;SDS011;52272;-29.642;-50.764;2022-12-17T08:06:37;20.80;;;3.58;;
65599;SDS011;52272;-29.642;-50.764;2022-12-17T08:09:33;76.20;;;6.22;;
65599;SDS011;52272;-29.642;-50.764;2022-12-17T08:12:36;51.35;;;3.80;;
65599;SDS011;52272;-29.642;-50.764;2022-12-17T08:15:25;20.42;;;2.40;;
65599;SDS011;52272;-29.642;-50.764;2022-12-17T08:18:17;39.78;;;3.25;;
65599;SDS011;52272;-29.642;-50.764;2022-12-17T08:21:05;26.02;;;4.20;;
65599;SDS011;52272;-29.642;-50.764;2022-12-17T08:23:54;125.78;;;7.00;;
65599;SDS011;52272;-29.642;-50.764;2022-12-17T08:26:42;80.18;;;5.55;;
65599;SDS011;52272;-29.642;-50.764;2022-12-17T08:29:31;36.28;;;3.83;;
65599;SDS011;52272;-29.642;-50.764;2022-12-17T08:32:20;83.50;;;5.55;;
65599;SDS011;52272;-29.642;-50.764;2022-12-17T08:35:09;96.88;;;6.55;;
65599;SDS011;52272;-29.642;-50.764;2022-12-17T08:38:04;45.35;;;3.95;;
65599;SDS011;52272;-29.642;-50.764;2022-12-17T08:40:53;37.22;;;4.43;;
65599;SDS011;52272;-29.642;-50.764;2022-12-17T08:43:42;22.60;;;3.58;;
65599;SDS011;52272;-29.642;-50.764;2022-12-17T08:46:30;63.53;;;4.47;;
65599;SDS011;52272;-29.642;-50.764;2022-12-17T08:49:18;54.88;;;4.93;;
65599;SDS011;52272;-29.642;-50.764;2022-12-17T08:52:07;32.70;;;3.40;;
65599;SDS011;52272;-29.642;-50.764;2022-12-17T08:54:56;103.30;;;7.60;;
65599;SDS011;52272;-29.642;-50.764;2022-12-17T08:58:05;97.35;;;6.00;;
65599;SDS011;52272;-29.642;-50.764;2022-12-17T09:00:52;77.35;;;5.80;;
65599;SDS011;52272;-29.642;-50.764;2022-12-17T09:03:45;42.03;;;4.57;;
65599;SDS011;52272;-29.642;-50.764;2022-12-17T09:06:34;38.00;;;3.42;;
65599;SDS011;52272;-29.642;-50.764;2022-12-17T09:09:22;32.10;;;4.60;;
65599;SDS011;52272;-29.642;-50.764;2022-12-17T09:12:10;22.20;;;3.42;;
65599;SDS011;52272;-29.642;-50.764;2022-12-17T09:14:59;14.35;;;3.50;;
65599;SDS011;52272;-29.642;-50.764;2022-12-17T09:17:49;34.67;;;5.00;;
65599;SDS011;52272;-29.642;-50.764;2022-12-17T09:20:39;49.65;;;6.35;;
65599;SDS011;52272;-29.642;-50.764;2022-12-17T09:23:27;48.47;;;5.90;;
65599;SDS011;52272;-29.642;-50.764;2022-12-17T09:26:16;92.38;;;8.85;;
65599;SDS011;52272;-29.642;-50.764;2022-12-17T09:29:04;19.38;;;5.30;;
65599;SDS011;52272;-29.642;-50.764;2022-12-17T09:31:53;143.77;;;12.18;;
65599;SDS011;52272;-29.642;-50.764;2022-12-17T09:34:41;88.53;;;11.65;;
65599;SDS011;52272;-29.642;-50.764;2022-12-17T09:37:29;94.57;;;11.07;;
65599;SDS011;52272;-29.642;-50.764;2022-12-17T09:40:20;99.72;;;10.10;;
65599;SDS011;52272;-29.642;-50.764;2022-12-17T09:46:51;22.40;;;6.80;;
65599;SDS011;52272;-29.642;-50.764;2022-12-17T09:49:51;94.60;;;9.43;;
65599;SDS011;52272;-29.642;-50.764;2022-12-17T09:52:39;30.88;;;7.53;;
65599;SDS011;52272;-29.642;-50.764;2022-12-17T09:58:48;36.65;;;8.00;;
65599;SDS011;52272;-29.642;-50.764;2022-12-17T10:01:36;10.60;;;5.85;;
65599;SDS011;52272;-29.642;-50.764;2022-12-17T10:04:33;27.38;;;6.75;;
65599;SDS011;52272;-29.642;-50.764;2022-12-17T10:07:33;16.95;;;5.72;;
65599;SDS011;52272;-29.642;-50.764;2022-12-17T10:10:25;28.92;;;5.93;;
65599;SDS011;52272;-29.642;-50.764;2022-12-17T10:13:18;9.02;;;5.57;;
65599;SDS011;52272;-29.642;-50.764;2022-12-17T10:16:28;8.55;;;3.67;;
65599;SDS011;52272;-29.642;-50.764;2022-12-17T10:19:24;11.52;;;3.80;;
65599;SDS011;52272;-29.642;-50.764;2022-12-17T10:22:22;10.85;;;3.97;;
65599;SDS011;52272;-29.642;-50.764;2022-12-17T10:28:11;9.93;;;3.75;;
65599;SDS011;52272;-29.642;-50.764;2022-12-17T10:31:06;6.10;;;3.35;;
65599;SDS011;52272;-29.642;-50.764;2022-12-17T10:33:56;6.28;;;3.50;;
65599;SDS011;52272;-29.642;-50.764;2022-12-17T10:36:45;8.93;;;3.60;;
65599;SDS011;52272;-29.642;-50.764;2022-12-17T10:39:36;9.27;;;3.70;;
65599;SDS011;52272;-29.642;-50.764;2022-12-17T10:42:29;6.78;;;3.33;;
65599;SDS011;52272;-29.642;-50.764;2022-12-17T10:48:23;9.48;;;3.90;;
65599;SDS011;52272;-29.642;-50.764;2022-12-17T10:51:32;9.63;;;3.50;;
65599;SDS011;52272;-29.642;-50.764;2022-12-17T10:54:24;7.13;;;3.00;;
65599;SDS011;52272;-29.642;-50.764;2022-12-17T11:00:21;10.98;;;3.45;;
65599;SDS011;52272;-29.642;-50.764;2022-12-17T11:03:24;8.52;;;3.28;;
65599;SDS011;52272;-29.642;-50.764;2022-12-17T11:06:24;11.68;;;3.60;;
65599;SDS011;52272;-29.642;-50.764;2022-12-17T11:09:33;8.80;;;3.03;;
65599;SDS011;52272;-29.642;-50.764;2022-12-17T11:12:41;6.68;;;2.70;;
65599;SDS011;52272;-29.642;-50.764;2022-12-17T11:15:54;7.75;;;3.03;;
65599;SDS011;52272;-29.642;-50.764;2022-12-17T11:18:54;10.27;;;3.30;;
65599;SDS011;52272;-29.642;-50.764;2022-12-17T11:21:46;8.55;;;3.10;;
65599;SDS011;52272;-29.642;-50.764;2022-12-17T11:27:35;11.13;;;2.88;;
65599;SDS011;52272;-29.642;-50.764;2022-12-17T11:30:53;9.05;;;2.72;;
65599;SDS011;52272;-29.642;-50.764;2022-12-17T11:33:51;6.60;;;2.28;;
65599;SDS011;52272;-29.642;-50.764;2022-12-17T11:40:43;8.15;;;2.20;;
65599;SDS011;52272;-29.642;-50.764;2022-12-17T11:43:28;6.85;;;2.08;;
65599;SDS011;52272;-29.642;-50.764;2022-12-17T11:46:28;7.68;;;2.42;;
65599;SDS011;52272;-29.642;-50.764;2022-12-17T11:59:06;11.25;;;2.63;;
65599;SDS011;52272;-29.642;-50.764;2022-12-17T12:15:22;10.90;;;2.13;;
65599;SDS011;52272;-29.642;-50.764;2022-12-17T12:18:17;8.10;;;1.73;;
65599;SDS011;52272;-29.642;-50.764;2022-12-17T12:27:52;4.53;;;1.70;;
65599;SDS011;52272;-29.642;-50.764;2022-12-17T12:34:26;7.57;;;1.65;;
65599;SDS011;52272;-29.642;-50.764;2022-12-17T12:37:19;9.60;;;2.38;;
65599;SDS011;52272;-29.642;-50.764;2022-12-17T12:46:35;9.90;;;1.80;;
65599;SDS011;52272;-29.642;-50.764;2022-12-17T12:52:21;8.23;;;1.90;;
65599;SDS011;52272;-29.642;-50.764;2022-12-17T12:55:12;6.93;;;2.10;;
65599;SDS011;52272;-29.642;-50.764;2022-12-17T12:58:04;8.57;;;1.95;;
65599;SDS011;52272;-29.642;-50.764;2022-12-17T13:01:12;7.15;;;1.80;;
65599;SDS011;52272;-29.642;-50.764;2022-12-17T13:04:20;7.15;;;1.70;;
65599;SDS011;52272;-29.642;-50.764;2022-12-17T13:07:27;8.30;;;1.70;;
65599;SDS011;52272;-29.642;-50.764;2022-12-17T13:09:58;7.82;;;1.70;;
65599;SDS011;52272;-29.642;-50.764;2022-12-17T13:12:48;7.40;;;1.90;;
65599;SDS011;52272;-29.642;-50.764;2022-12-17T13:15:23;8.43;;;1.83;;
65599;SDS011;52272;-29.642;-50.764;2022-12-17T13:21:24;11.07;;;2.20;;
65599;SDS011;52272;-29.642;-50.764;2022-12-17T13:23:46;10.18;;;2.03;;
65599;SDS011;52272;-29.642;-50.764;2022-12-17T13:26:18;11.07;;;1.80;;
65599;SDS011;52272;-29.642;-50.764;2022-12-17T13:31:38;6.82;;;1.67;;
65599;SDS011;52272;-29.642;-50.764;2022-12-17T13:42:44;4.20;;;1.65;;
65599;SDS011;52272;-29.642;-50.764;2022-12-17T13:45:21;7.60;;;1.67;;
65599;SDS011;52272;-29.642;-50.764;2022-12-17T13:47:53;5.22;;;2.00;;
65599;SDS011;52272;-29.642;-50.764;2022-12-17T13:50:26;7.40;;;1.95;;
65599;SDS011;52272;-29.642;-50.764;2022-12-17T13:55:39;8.73;;;2.00;;
65599;SDS011;52272;-29.642;-50.764;2022-12-17T13:58:31;5.65;;;1.55;;
65599;SDS011;52272;-29.642;-50.764;2022-12-17T14:01:04;6.07;;;2.03;;
65599;SDS011;52272;-29.642;-50.764;2022-12-17T14:03:35;6.10;;;1.65;;
65599;SDS011;52272;-29.642;-50.764;2022-12-17T14:06:33;6.97;;;1.67;;
65599;SDS011;52272;-29.642;-50.764;2022-12-17T14:09:06;6.25;;;1.30;;
65599;SDS011;52272;-29.642;-50.764;2022-12-17T14:11:42;5.20;;;1.40;;
65599;SDS011;52272;-29.642;-50.764;2022-12-17T14:14:32;6.18;;;1.90;;
65599;SDS011;52272;-29.642;-50.764;2022-12-17T14:17:17;5.82;;;1.50;;
65599;SDS011;52272;-29.642;-50.764;2022-12-17T14:20:00;5.18;;;1.30;;
65599;SDS011;52272;-29.642;-50.764;2022-12-17T14:22:53;6.00;;;1.75;;
65599;SDS011;52272;-29.642;-50.764;2022-12-17T14:25:34;5.60;;;1.73;;
65599;SDS011;52272;-29.642;-50.764;2022-12-17T14:28:53;6.90;;;2.00;;
65599;SDS011;52272;-29.642;-50.764;2022-12-17T14:36:39;8.85;;;1.80;;
65599;SDS011;52272;-29.642;-50.764;2022-12-17T14:39:45;8.52;;;1.88;;
65599;SDS011;52272;-29.642;-50.764;2022-12-17T14:42:21;9.00;;;1.75;;
65599;SDS011;52272;-29.642;-50.764;2022-12-17T14:47:29;6.88;;;1.50;;
65599;SDS011;52272;-29.642;-50.764;2022-12-17T14:50:06;7.00;;;1.48;;
65599;SDS011;52272;-29.642;-50.764;2022-12-17T14:52:46;5.32;;;1.30;;
65599;SDS011;52272;-29.642;-50.764;2022-12-17T15:03:38;6.18;;;1.20;;
65599;SDS011;52272;-29.642;-50.764;2022-12-17T15:06:14;4.88;;;1.55;;
65599;SDS011;52272;-29.642;-50.764;2022-12-17T15:08:47;5.47;;;1.30;;
65599;SDS011;52272;-29.642;-50.764;2022-12-17T15:11:20;2.33;;;0.82;;
65599;SDS011;52272;-29.642;-50.764;2022-12-17T15:13:51;3.58;;;1.40;;
65599;SDS011;52272;-29.642;-50.764;2022-12-17T15:16:24;8.35;;;1.30;;
65599;SDS011;52272;-29.642;-50.764;2022-12-17T15:18:55;4.22;;;1.48;;
65599;SDS011;52272;-29.642;-50.764;2022-12-17T15:21:25;6.30;;;1.40;;
65599;SDS011;52272;-29.642;-50.764;2022-12-17T15:23:55;6.50;;;1.63;;
65599;SDS011;52272;-29.642;-50.764;2022-12-17T15:26:26;4.50;;;1.30;;
65599;SDS011;52272;-29.642;-50.764;2022-12-17T15:28:56;5.10;;;1.58;;
65599;SDS011;52272;-29.642;-50.764;2022-12-17T15:31:26;3.72;;;1.30;;
65599;SDS011;52272;-29.642;-50.764;2022-12-17T15:34:02;4.32;;;1.20;;
65599;SDS011;52272;-29.642;-50.764;2022-12-17T15:36:32;6.97;;;1.40;;
65599;SDS011;52272;-29.642;-50.764;2022-12-17T15:39:02;7.70;;;1.15;;
65599;SDS011;52272;-29.642;-50.764;2022-12-17T15:41:36;2.47;;;0.90;;
65599;SDS011;52272;-29.642;-50.764;2022-12-17T15:44:25;4.75;;;1.30;;
65599;SDS011;52272;-29.642;-50.764;2022-12-17T15:46:55;4.18;;;1.20;;
65599;SDS011;52272;-29.642;-50.764;2022-12-17T15:49:25;4.35;;;1.20;;
65599;SDS011;52272;-29.642;-50.764;2022-12-17T15:51:56;6.30;;;1.63;;
65599;SDS011;52272;-29.642;-50.764;2022-12-17T15:54:26;4.28;;;1.33;;
65599;SDS011;52272;-29.642;-50.764;2022-12-17T15:56:56;4.70;;;1.30;;
65599;SDS011;52272;-29.642;-50.764;2022-12-17T15:59:26;4.93;;;1.08;;
65599;SDS011;52272;-29.642;-50.764;2022-12-17T16:01:56;6.75;;;1.35;;
65599;SDS011;52272;-29.642;-50.764;2022-12-17T16:04:27;4.20;;;1.25;;
65599;SDS011;52272;-29.642;-50.764;2022-12-17T16:06:59;4.97;;;1.42;;
65599;SDS011;52272;-29.642;-50.764;2022-12-17T16:09:29;7.22;;;1.27;;
65599;SDS011;52272;-29.642;-50.764;2022-12-17T16:11:59;3.10;;;1.17;;
65599;SDS011;52272;-29.642;-50.764;2022-12-17T16:14:30;3.10;;;0.90;;
65599;SDS011;52272;-29.642;-50.764;2022-12-17T16:17:00;2.90;;;0.98;;
65599;SDS011;52272;-29.642;-50.764;2022-12-17T16:19:31;4.68;;;1.00;;
65599;SDS011;52272;-29.642;-50.764;2022-12-17T16:22:01;6.55;;;1.38;;
65599;SDS011;52272;-29.642;-50.764;2022-12-17T16:24:32;3.10;;;1.00;;
65599;SDS011;52272;-29.642;-50.764;2022-12-17T16:27:02;3.67;;;1.00;;
65599;SDS011;52272;-29.642;-50.764;2022-12-17T16:29:32;4.05;;;1.40;;
65599;SDS011;52272;-29.642;-50.764;2022-12-17T16:32:02;5.05;;;1.30;;
65599;SDS011;52272;-29.642;-50.764;2022-12-17T16:34:34;3.88;;;1.00;;
65599;SDS011;52272;-29.642;-50.764;2022-12-17T16:37:04;4.30;;;1.20;;
65599;SDS011;52272;-29.642;-50.764;2022-12-17T16:39:35;5.03;;;1.30;;
65599;SDS011;52272;-29.642;-50.764;2022-12-17T16:42:05;3.65;;;0.93;;
65599;SDS011;52272;-29.642;-50.764;2022-12-17T16:44:35;4.43;;;1.20;;
65599;SDS011;52272;-29.642;-50.764;2022-12-17T16:47:05;3.88;;;0.98;;
65599;SDS011;52272;-29.642;-50.764;2022-12-17T16:49:36;3.78;;;1.10;;
65599;SDS011;52272;-29.642;-50.764;2022-12-17T16:52:06;4.90;;;1.10;;
65599;SDS011;52272;-29.642;-50.764;2022-12-17T16:54:36;5.65;;;0.98;;
65599;SDS011;52272;-29.642;-50.764;2022-12-17T16:57:06;2.40;;;0.77;;
65599;SDS011;52272;-29.642;-50.764;2022-12-17T16:59:37;7.70;;;1.13;;
65599;SDS011;52272;-29.642;-50.764;2022-12-17T17:02:11;3.50;;;1.05;;
65599;SDS011;52272;-29.642;-50.764;2022-12-17T17:04:42;3.65;;;1.10;;
65599;SDS011;52272;-29.642;-50.764;2022-12-17T17:07:13;3.00;;;0.90;;
65599;SDS011;52272;-29.642;-50.764;2022-12-17T17:09:43;3.67;;;1.30;;
65599;SDS011;52272;-29.642;-50.764;2022-12-17T17:12:13;4.35;;;1.40;;
65599;SDS011;52272;-29.642;-50.764;2022-12-17T17:14:43;3.97;;;1.20;;
65599;SDS011;52272;-29.642;-50.764;2022-12-17T17:17:13;3.53;;;1.30;;
65599;SDS011;52272;-29.642;-50.764;2022-12-17T17:20:07;6.82;;;1.10;;
65599;SDS011;52272;-29.642;-50.764;2022-12-17T17:22:37;3.15;;;1.40;;
65599;SDS011;52272;-29.642;-50.764;2022-12-17T17:25:07;2.70;;;0.77;;
65599;SDS011;52272;-29.642;-50.764;2022-12-17T17:27:40;4.38;;;1.30;;
65599;SDS011;52272;-29.642;-50.764;2022-12-17T17:30:10;5.25;;;1.08;;
65599;SDS011;52272;-29.642;-50.764;2022-12-17T17:32:41;4.30;;;0.98;;
65599;SDS011;52272;-29.642;-50.764;2022-12-17T17:35:11;6.85;;;1.27;;
65599;SDS011;52272;-29.642;-50.764;2022-12-17T17:37:42;5.18;;;1.60;;
65599;SDS011;52272;-29.642;-50.764;2022-12-17T17:40:12;6.13;;;1.33;;
65599;SDS011;52272;-29.642;-50.764;2022-12-17T17:42:43;7.60;;;1.48;;
65599;SDS011;52272;-29.642;-50.764;2022-12-17T17:45:18;6.78;;;1.23;;